Time;durP1;ratioP1;P1;durP2;ratioP2;P2;SDS_P1;SDS_P2;PMS_P1;PMS_P2;Temp;Humidity;BMP_temperature;BMP_pressure;BME280_temperature;BME280_humidity;BME280_pressure;Samples;Min_cycle;Max_cycle;Signal;HPM_P1;HPM_P2
2022/04/08 00:08:22;;;;;;;0.20;0.10;;;13.70;99.90;;;;;;25399317;23;20215;-62
2022/04/08 00:18:29;;;;;;;0.20;0.00;;;14.10;99.90;;;;;;25396243;23;20203;-63
2022/04/08 00:28:32;;;;;;;0.20;0.00;;;14.60;99.90;;;;;;25372216;23;20439;-62
2022/04/08 00:38:38;;;;;;;0.20;0.00;;;14.60;99.90;;;;;;25395158;23;20226;-62
2022/04/08 00:48:41;;;;;;;0.20;0.00;;;13.90;99.90;;;;;;25395908;23;20184;-62
2022/04/08 00:58:46;;;;;;;0.20;0.00;;;13.80;99.90;;;;;;25397882;23;20221;-62
2022/04/08 01:08:52;;;;;;;0.20;0.00;;;13.50;99.90;;;;;;25400072;23;20181;-63
2022/04/08 01:18:57;;;;;;;0.20;0.10;;;13.10;99.90;;;;;;25397701;23;20291;-63
2022/04/08 01:29:02;;;;;;;0.90;0.70;;;13.50;99.90;;;;;;25396727;23;20175;-63
2022/04/08 01:39:06;;;;;;;0.20;0.03;;;13.30;99.90;;;;;;25397328;23;20219;-63
2022/04/08 01:49:11;;;;;;;0.20;0.10;;;12.80;99.90;;;;;;25370386;23;20247;-62
2022/04/08 01:59:15;;;;;;;0.20;0.10;;;12.90;99.90;;;;;;25396017;23;20263;-64
2022/04/08 02:09:20;;;;;;;0.20;0.10;;;13.00;99.90;;;;;;25395225;23;20302;-63
2022/04/08 02:19:24;;;;;;;0.20;0.00;;;12.70;99.90;;;;;;25395171;23;20203;-63
2022/04/08 02:29:29;;;;;;;0.20;0.10;;;12.80;99.90;;;;;;25394029;23;20189;-62
2022/04/08 02:39:33;;;;;;;0.20;0.10;;;12.70;99.90;;;;;;25395326;23;20243;-62
2022/04/08 02:49:38;;;;;;;0.20;0.10;;;12.90;99.90;;;;;;25366127;23;20238;-62
2022/04/08 02:59:42;;;;;;;0.20;0.10;;;12.70;99.90;;;;;;25393581;23;20222;-61
2022/04/08 03:09:47;;;;;;;0.20;0.10;;;12.60;99.90;;;;;;25390461;23;20194;-62
2022/04/08 03:19:51;;;;;;;0.20;0.10;;;12.10;99.90;;;;;;25367322;23;20207;-61
2022/04/08 03:29:56;;;;;;;0.20;0.10;;;11.90;99.90;;;;;;25390229;23;20698;-63
2022/04/08 03:40:00;;;;;;;0.20;0.10;;;12.00;99.90;;;;;;25392720;23;20202;-62
2022/04/08 03:50:06;;;;;;;0.20;0.10;;;12.20;99.90;;;;;;25364696;23;20192;-68
2022/04/08 04:00:11;;;;;;;0.20;0.00;;;12.50;99.90;;;;;;25390891;23;20254;-69
2022/04/08 04:10:16;;;;;;;0.20;0.10;;;12.10;99.90;;;;;;25392246;23;20271;-68
2022/04/08 04:20:19;;;;;;;0.20;0.10;;;11.90;99.90;;;;;;25387513;23;20521;-69
2022/04/08 04:30:27;;;;;;;0.20;0.10;;;12.20;99.90;;;;;;25393187;23;20271;-68
2022/04/08 04:40:31;;;;;;;0.20;0.10;;;12.20;99.90;;;;;;25388925;23;20241;-69
2022/04/08 04:50:36;;;;;;;0.20;0.07;;;12.40;99.90;;;;;;25393129;23;20303;-70
2022/04/08 05:00:40;;;;;;;0.20;0.10;;;11.90;99.90;;;;;;25396578;23;20194;-70
2022/04/08 05:10:45;;;;;;;0.20;0.00;;;11.80;99.90;;;;;;25395123;23;20168;-69
2022/04/08 05:20:52;;;;;;;0.20;0.00;;;11.60;99.90;;;;;;25395423;23;20211;-63
2022/04/08 05:30:57;;;;;;;0.20;0.10;;;11.80;99.90;;;;;;25393910;23;20192;-65
2022/04/08 05:41:01;;;;;;;0.20;0.20;;;12.30;99.90;;;;;;25392559;23;20207;-64
2022/04/08 05:51:06;;;;;;;0.20;0.10;;;12.50;99.90;;;;;;25390472;23;20223;-64
2022/04/08 06:01:10;;;;;;;0.20;0.10;;;12.90;99.90;;;;;;25362478;23;20437;-65
2022/04/08 06:11:16;;;;;;;0.20;0.10;;;13.30;99.90;;;;;;25385363;23;20294;-62
2022/04/08 06:21:19;;;;;;;0.20;0.10;;;13.30;99.90;;;;;;25385681;23;20275;-65
2022/04/08 06:31:28;;;;;;;0.20;0.10;;;13.50;99.90;;;;;;25357022;23;20195;-64
2022/04/08 06:41:32;;;;;;;0.20;0.00;;;14.40;99.90;;;;;;25387253;23;20195;-65
2022/04/08 06:51:37;;;;;;;0.20;0.10;;;14.80;99.90;;;;;;25360311;23;20200;-63
2022/04/08 07:01:41;;;;;;;0.20;0.10;;;15.30;99.90;;;;;;25386064;23;20176;-62
2022/04/08 07:11:47;;;;;;;0.20;0.10;;;15.60;99.90;;;;;;25385338;23;20203;-64
2022/04/08 07:21:51;;;;;;;0.20;0.10;;;15.90;99.90;;;;;;25385616;23;20229;-63
2022/04/08 07:31:57;;;;;;;0.20;0.10;;;16.30;99.90;;;;;;25363066;23;20195;-64
2022/04/08 07:42:01;;;;;;;0.20;0.10;;;16.30;99.90;;;;;;25386703;23;20230;-62
2022/04/08 07:52:07;;;;;;;0.20;0.10;;;16.30;99.90;;;;;;25383406;23;20483;-63
2022/04/08 08:02:11;;;;;;;0.20;0.10;;;16.90;99.90;;;;;;25359631;23;20199;-78
2022/04/08 08:12:16;;;;;;;0.20;0.10;;;17.10;99.90;;;;;;25390788;23;20207;-76
2022/04/08 08:22:20;;;;;;;0.20;0.10;;;17.40;99.90;;;;;;25387533;23;20255;-72
2022/04/08 08:32:25;;;;;;;0.20;0.10;;;17.70;99.90;;;;;;25390237;23;20199;-70
2022/04/08 08:42:30;;;;;;;0.20;0.10;;;17.70;99.90;;;;;;25390744;23;20187;-79
2022/04/08 08:52:35;;;;;;;0.20;0.10;;;17.70;99.90;;;;;;25393636;23;20199;-76
2022/04/08 09:02:40;;;;;;;0.20;0.10;;;18.30;99.90;;;;;;25361294;23;20246;-77
2022/04/08 09:12:45;;;;;;;0.20;0.10;;;18.80;99.90;;;;;;25392527;23;20263;-76
2022/04/08 09:22:56;;;;;;;0.20;0.10;;;19.30;99.90;;;;;;25390435;23;20178;-78
2022/04/08 09:33:12;;;;;;;0.20;0.10;;;19.50;99.90;;;;;;25386747;23;20183;-72
2022/04/08 09:43:17;;;;;;;0.20;0.10;;;19.50;99.90;;;;;;25386298;23;20262;-71
2022/04/08 09:53:26;;;;;;;0.20;0.00;;;19.80;99.90;;;;;;25389847;23;20539;-70
2022/04/08 10:03:31;;;;;;;0.43;0.43;;;20.70;99.90;;;;;;25388731;23;20585;-72
2022/04/08 10:13:51;;;;;;;0.40;0.40;;;21.40;99.90;;;;;;25389972;23;20305;-72
2022/04/08 10:23:56;;;;;;;0.20;0.00;;;20.80;99.90;;;;;;25364947;23;20204;-70
2022/04/08 10:34:02;;;;;;;1.00;0.50;;;21.90;99.90;;;;;;25362701;23;20420;-76
2022/04/08 10:44:06;;;;;;;0.20;0.00;;;22.20;99.90;;;;;;25390391;23;20223;-77
2022/04/08 10:54:12;;;;;;;0.20;0.10;;;23.10;99.90;;;;;;25365610;23;20203;-62
2022/04/08 11:04:19;;;;;;;0.20;0.00;;;22.70;99.90;;;;;;25389394;23;20640;-62
2022/04/08 11:14:28;;;;;;;0.20;0.00;;;22.70;99.90;;;;;;25386855;23;20210;-62
2022/04/08 11:24:36;;;;;;;0.20;0.10;;;23.10;99.90;;;;;;25388510;23;20233;-73
2022/04/08 11:34:42;;;;;;;0.20;0.00;;;24.10;99.90;;;;;;25384615;23;20262;-69
2022/04/08 11:44:45;;;;;;;0.40;0.30;;;24.00;99.90;;;;;;25383636;23;20366;-74
2022/04/08 11:54:51;;;;;;;0.20;0.00;;;24.60;99.90;;;;;;25387847;23;20198;-78
2022/04/08 12:05:24;;;;;;;0.20;0.10;;;25.70;99.90;;;;;;25394736;23;20180;-82
2022/04/08 12:15:43;;;;;;;0.25;0.10;;;24.90;99.90;;;;;;25371231;23;20195;-75
2022/04/08 12:25:49;;;;;;;0.20;0.00;;;25.20;99.90;;;;;;25390523;23;20239;-69
2022/04/08 12:35:55;;;;;;;0.60;0.15;;;25.70;99.90;;;;;;25390993;23;20434;-68
2022/04/08 12:45:58;;;;;;;0.20;0.00;;;26.00;99.90;;;;;;25393444;23;20163;-69
2022/04/08 12:56:04;;;;;;;0.20;0.00;;;25.90;99.90;;;;;;25388664;23;20203;-71
2022/04/08 13:06:08;;;;;;;0.20;0.00;;;26.50;99.90;;;;;;25394008;23;20172;-68
2022/04/08 13:16:14;;;;;;;0.20;0.00;;;26.20;99.90;;;;;;25390923;23;20230;-69
2022/04/08 13:26:17;;;;;;;0.20;0.10;;;27.20;99.90;;;;;;25391838;23;20171;-69
2022/04/08 13:36:23;;;;;;;0.20;0.00;;;27.10;99.90;;;;;;25392764;23;20251;-69
2022/04/08 13:46:26;;;;;;;0.20;0.00;;;28.10;99.90;;;;;;25391441;23;20190;-71
2022/04/08 13:56:31;;;;;;;0.20;0.10;;;27.40;99.90;;;;;;25389701;23;20203;-71
2022/04/08 14:06:35;;;;;;;0.20;0.00;;;29.30;99.90;;;;;;25393893;23;20164;-69
2022/04/08 14:16:40;;;;;;;0.20;0.00;;;28.20;98.40;;;;;;25396554;23;20187;-64
2022/04/08 14:26:44;;;;;;;0.20;0.00;;;26.20;99.20;;;;;;25395301;23;20214;-64
2022/04/08 14:36:50;;;;;;;0.20;0.10;;;25.80;98.00;;;;;;25393767;23;20203;-67
2022/04/08 14:46:53;;;;;;;0.20;0.10;;;27.20;96.30;;;;;;25392119;23;20163;-72
2022/04/08 14:56:59;;;;;;;0.20;0.00;;;28.40;94.80;;;;;;25393164;23;20203;-70
2022/04/08 15:07:02;;;;;;;0.20;0.10;;;28.00;94.70;;;;;;25391858;23;20191;-73
2022/04/08 15:17:08;;;;;;;0.40;0.20;;;28.30;95.20;;;;;;25392574;23;20188;-69
2022/04/08 15:27:11;;;;;;;0.20;0.00;;;27.00;96.50;;;;;;25367291;23;20160;-76
2022/04/08 15:37:17;;;;;;;1.95;1.65;;;27.10;97.00;;;;;;25370681;23;20195;-79
2022/04/08 15:47:20;;;;;;;0.20;0.00;;;26.60;97.60;;;;;;25368679;23;20179;-80
2022/04/08 15:57:25;;;;;;;0.20;0.00;;;24.90;99.30;;;;;;25389411;23;20214;-83
2022/04/08 16:07:29;;;;;;;0.20;0.10;;;24.40;99.90;;;;;;25398017;23;20168;-81
2022/04/08 16:17:34;;;;;;;0.20;0.00;;;25.20;99.80;;;;;;25398311;23;20552;-76
2022/04/08 16:27:38;;;;;;;0.80;0.60;;;24.60;99.90;;;;;;25394518;23;20195;-78
2022/04/08 16:37:43;;;;;;;0.20;0.00;;;24.50;99.90;;;;;;25404669;23;20188;-80
2022/04/08 16:47:47;;;;;;;0.20;0.00;;;24.20;99.90;;;;;;25414534;23;20178;-81
2022/04/08 16:57:54;;;;;;;0.38;0.32;;;24.50;99.90;;;;;;25382912;23;20279;-70
2022/04/08 17:07:58;;;;;;;0.20;0.10;;;24.00;99.90;;;;;;25405361;23;20223;-70
2022/04/08 17:18:03;;;;;;;0.20;0.00;;;23.50;99.90;;;;;;25399671;23;20187;-71
2022/04/08 17:28:07;;;;;;;1.07;0.97;;;23.50;99.90;;;;;;25378495;23;20171;-68
2022/04/08 17:38:13;;;;;;;0.20;0.00;;;23.40;98.70;;;;;;25411323;23;20183;-68
2022/04/08 17:48:17;;;;;;;0.20;0.00;;;23.20;98.30;;;;;;25410430;23;20164;-70
2022/04/08 17:58:22;;;;;;;0.20;0.07;;;23.00;99.10;;;;;;25483151;23;20206;-71
2022/04/08 18:08:26;;;;;;;0.20;0.10;;;22.70;99.90;;;;;;25526139;23;20174;-71
2022/04/08 18:18:32;;;;;;;0.20;0.10;;;22.50;99.90;;;;;;25527839;23;20195;-69
2022/04/08 18:28:36;;;;;;;0.20;0.00;;;22.20;99.80;;;;;;25529173;23;20170;-74
2022/04/08 18:38:41;;;;;;;0.20;0.00;;;21.90;99.90;;;;;;25483348;23;20187;-81
2022/04/08 18:48:46;;;;;;;0.20;0.00;;;21.60;99.90;;;;;;25527049;23;20156;-80
2022/04/08 18:58:52;;;;;;;0.90;0.53;;;21.30;99.90;;;;;;25417910;23;20208;-83
2022/04/08 19:08:56;;;;;;;0.20;0.10;;;21.20;99.90;;;;;;25405669;23;20163;-74
2022/04/08 19:19:01;;;;;;;0.43;0.20;;;21.10;99.90;;;;;;25403506;23;20263;-78
2022/04/08 19:29:06;;;;;;;0.20;0.10;;;21.00;99.90;;;;;;25401766;23;20194;-77
2022/04/08 19:39:12;;;;;;;0.30;0.30;;;20.90;99.90;;;;;;25379914;23;20192;-79
2022/04/08 19:49:16;;;;;;;0.20;0.00;;;20.80;99.90;;;;;;25414712;23;21219;-76
2022/04/08 19:59:22;;;;;;;0.20;0.00;;;20.70;99.90;;;;;;25407933;23;20214;-80
2022/04/08 20:09:27;;;;;;;0.20;0.13;;;20.70;99.90;;;;;;25408164;23;20167;-78
2022/04/08 20:19:32;;;;;;;0.20;0.10;;;20.60;99.90;;;;;;25384867;23;20247;-79
2022/04/08 20:29:36;;;;;;;0.20;0.10;;;20.50;99.90;;;;;;25415716;23;20171;-79
2022/04/08 20:39:41;;;;;;;0.20;0.10;;;20.30;99.90;;;;;;25412634;23;20188;-77
2022/04/08 20:49:46;;;;;;;0.20;0.20;;;20.20;99.90;;;;;;25411051;23;20160;-78
2022/04/08 20:59:51;;;;;;;0.20;0.10;;;20.30;99.90;;;;;;25411236;23;20195;-73
2022/04/08 21:09:55;;;;;;;0.20;0.10;;;20.20;99.90;;;;;;25410773;23;20175;-77
2022/04/08 21:20:00;;;;;;;0.20;0.10;;;20.10;99.90;;;;;;25411659;23;20203;-83
2022/04/08 21:30:05;;;;;;;0.20;0.10;;;20.00;99.90;;;;;;25412478;23;20171;-75
2022/04/08 21:40:27;;;;;;;0.20;0.07;;;20.30;99.90;;;;;;25407835;23;20188;-79
2022/04/08 21:50:31;;;;;;;0.20;0.10;;;20.40;99.90;;;;;;25412209;23;20171;-75
2022/04/08 22:00:39;;;;;;;0.20;0.10;;;20.60;99.90;;;;;;25381896;23;20210;-75
2022/04/08 22:10:44;;;;;;;0.20;0.10;;;20.40;99.90;;;;;;25401306;23;20187;-77
2022/04/08 22:20:50;;;;;;;0.20;0.10;;;20.20;99.90;;;;;;25409054;23;20191;-76
2022/04/08 22:30:54;;;;;;;0.20;0.10;;;19.90;99.90;;;;;;25386307;23;20175;-74
2022/04/08 22:41:00;;;;;;;0.20;0.10;;;19.80;99.90;;;;;;25382061;23;20210;-79
2022/04/08 22:51:04;;;;;;;0.20;0.10;;;19.80;99.90;;;;;;25382014;23;20195;-79
2022/04/08 23:01:09;;;;;;;0.20;0.07;;;19.70;99.90;;;;;;25405723;23;20195;-77
2022/04/08 23:11:13;;;;;;;0.20;0.10;;;19.70;99.90;;;;;;25404669;23;20199;-80
2022/04/08 23:21:18;;;;;;;0.20;0.10;;;19.60;99.90;;;;;;25404296;23;20207;-64
2022/04/08 23:31:22;;;;;;;0.20;0.00;;;19.60;99.90;;;;;;25402025;23;20518;-64
2022/04/08 23:41:28;;;;;;;0.20;0.10;;;19.60;99.90;;;;;;25403152;23;20199;-65
2022/04/08 23:51:31;;;;;;;0.20;0.10;;;19.60;99.90;;;;;;25324981;23;1859703;-63
